createdAt,value
2018-05-13T00:00:40.639Z,97391.56
2018-05-13T00:03:10.948Z,97396.03
2018-05-13T00:05:40.658Z,97398.33
2018-05-13T00:08:11.400Z,97392.78
2018-05-13T00:10:41.753Z,97397.92
2018-05-13T00:13:12.154Z,97399.14
2018-05-13T00:15:41.952Z,97391.70
2018-05-13T00:18:13.519Z,97395.64
2018-05-13T00:20:43.092Z,97397.38
2018-05-13T00:23:12.838Z,97396.31
2018-05-13T00:25:42.629Z,97391.41
2018-05-13T00:28:12.162Z,97397.51
2018-05-13T00:30:42.557Z,97388.44
2018-05-13T00:33:12.142Z,97386.67
2018-05-13T00:35:41.733Z,97387.09
2018-05-13T00:38:12.454Z,97392.38
2018-05-13T00:40:42.103Z,97389.66
2018-05-13T00:43:11.778Z,97385.45
2018-05-13T00:45:41.411Z,97383.57
2018-05-13T00:48:11.040Z,97380.19
2018-05-13T00:50:40.907Z,97375.17
2018-05-13T00:53:10.698Z,97373.28
2018-05-13T00:55:40.465Z,97376.13
2018-05-13T00:58:09.988Z,97378.29
2018-05-13T01:00:40.119Z,97375.03
2018-05-13T01:03:09.829Z,97377.06
2018-05-13T01:05:40.837Z,97373.53
2018-05-13T01:08:10.807Z,97373.27
2018-05-13T01:10:40.358Z,97373.13
2018-05-13T01:13:10.638Z,97366.92
2018-05-13T01:15:40.529Z,97369.91
2018-05-13T01:20:47.409Z,97371.37
2018-05-13T01:23:17.500Z,97368.66
2018-05-13T01:25:47.909Z,97357.98
2018-05-13T01:28:17.617Z,97354.18
2018-05-13T01:30:47.337Z,97355.94
2018-05-13T01:33:17.532Z,97359.47
2018-05-13T01:35:47.232Z,97355.02
2018-05-13T01:38:17.721Z,97354.33
2018-05-13T01:40:48.035Z,97348.89
2018-05-13T01:43:18.517Z,97345.10
2018-05-13T01:45:48.324Z,97345.24
2018-05-13T01:48:18.370Z,97347.27
2018-05-13T01:50:47.927Z,97341.44
2018-05-13T01:53:18.380Z,97342.27
2018-05-13T01:55:48.015Z,97340.23
2018-05-13T01:58:17.818Z,97338.47
2018-05-13T02:00:47.367Z,97329.54
2018-05-13T02:03:17.030Z,97326.95
2018-05-13T02:05:47.540Z,97328.84
2018-05-13T02:08:17.477Z,97329.12
2018-05-13T02:10:47.603Z,97323.02
2018-05-13T02:13:18.444Z,97325.31
2018-05-13T02:15:48.184Z,97318.42
2018-05-13T02:18:19.079Z,97318.70
2018-05-13T02:20:48.855Z,97325.31
2018-05-13T02:23:18.827Z,97322.47
2018-05-13T02:25:49.363Z,97325.08
2018-05-13T02:28:19.258Z,97324.13
2018-05-13T02:30:51.749Z,97320.88
2018-05-13T02:33:22.273Z,97329.39
2018-05-13T02:35:54.135Z,97325.07
2018-05-13T02:38:23.948Z,97325.07
2018-05-13T02:40:54.076Z,97327.52
2018-05-13T02:43:24.005Z,97319.53
2018-05-13T02:45:54.332Z,97314.22
2018-05-13T02:48:24.964Z,97318.42
2018-05-13T02:50:54.760Z,97320.73
2018-05-13T02:53:26.255Z,97320.17
2018-05-13T02:55:57.051Z,97321.55
2018-05-13T02:58:26.836Z,97312.20
2018-05-13T03:00:57.583Z,97318.71
2018-05-13T03:03:27.576Z,97318.98
2018-05-13T03:05:57.325Z,97316.53
2018-05-13T03:08:27.019Z,97318.17
2018-05-13T03:10:56.652Z,97318.42
2018-05-13T03:13:26.497Z,97312.35
2018-05-13T03:15:56.376Z,97320.61
2018-05-13T03:18:26.181Z,97324.11
2018-05-13T03:20:56.006Z,97315.33
2018-05-13T03:23:26.058Z,97313.00
2018-05-13T03:25:55.939Z,97314.77
2018-05-13T03:28:26.366Z,97312.87
2018-05-13T03:30:57.240Z,97312.08
2018-05-13T03:33:27.409Z,97306.66
2018-05-13T03:35:57.113Z,97320.34
2018-05-13T03:38:28.683Z,97319.79
2018-05-13T03:40:58.684Z,97319.23
2018-05-13T03:43:28.508Z,97318.98
2018-05-13T03:45:58.233Z,97318.84
2018-05-13T03:48:28.212Z,97313.27
2018-05-13T03:50:59.682Z,97312.08
2018-05-13T03:53:29.423Z,97317.20
2018-05-13T03:56:00.028Z,97313.14
2018-05-13T03:58:29.691Z,97311.65
2018-05-13T04:00:59.802Z,97316.67
2018-05-13T04:03:29.560Z,97314.11
2018-05-13T04:06:00.728Z,97315.86
2018-05-13T04:08:57.150Z,97316.80
2018-05-13T04:11:44.399Z,97318.16
2018-05-13T04:17:23.307Z,97315.19
2018-05-13T04:19:54.536Z,97314.66
2018-05-13T04:22:24.277Z,97324.94
2018-05-13T04:24:54.681Z,97327.63
2018-05-13T04:27:25.958Z,97325.87
2018-05-13T04:29:55.754Z,97316.80
2018-05-13T04:32:25.626Z,97318.17
2018-05-13T04:34:55.958Z,97316.94
2018-05-13T04:37:25.727Z,97317.34
2018-05-13T04:39:56.182Z,97316.28
2018-05-13T04:43:09.144Z,97321.95
2018-05-13T04:46:16.874Z,97328.45
2018-05-13T04:52:35.264Z,97328.98
2018-05-13T04:55:05.161Z,97335.36
2018-05-13T04:57:35.838Z,97326.30
2018-05-13T05:00:07.111Z,97324.78
2018-05-13T05:02:37.517Z,97333.44
2018-05-13T05:05:07.895Z,97338.59
2018-05-13T05:07:39.140Z,97334.14
2018-05-13T05:10:10.028Z,97333.05
2018-05-13T05:12:39.554Z,97337.80
2018-05-13T05:15:09.314Z,97339.95
2018-05-13T05:17:39.175Z,97340.23
2018-05-13T05:20:09.746Z,97333.45
2018-05-13T05:22:39.512Z,97338.75
2018-05-13T05:25:09.755Z,97336.58
2018-05-13T05:27:39.479Z,97338.76
2018-05-13T05:30:09.023Z,97333.73
2018-05-13T05:32:41.468Z,97332.11
2018-05-13T05:35:10.967Z,97333.20
2018-05-13T05:37:40.640Z,97330.30
2018-05-13T05:40:10.519Z,97334.52
2018-05-13T05:42:42.197Z,97332.03
2018-05-13T05:45:16.794Z,97325.00
2018-05-13T05:47:47.944Z,97319.44
2018-05-13T05:50:19.952Z,97327.27
2018-05-13T05:52:50.868Z,97324.75
2018-05-13T05:55:22.280Z,97326.73
2018-05-13T05:57:52.605Z,97322.17
2018-05-13T06:00:23.597Z,97327.70
2018-05-13T06:02:53.869Z,97333.28
2018-05-13T06:05:24.475Z,97325.03
2018-05-13T06:07:54.852Z,97334.94
2018-05-13T06:10:24.477Z,97327.09
2018-05-13T06:12:55.270Z,97323.15
2018-05-13T06:15:25.147Z,97305.36
2018-05-13T06:17:54.998Z,97301.72
2018-05-13T06:20:25.000Z,97290.02
2018-05-13T06:22:54.599Z,97287.23
2018-05-13T06:25:24.502Z,97278.33
2018-05-13T06:27:54.158Z,97285.47
2018-05-13T06:30:24.208Z,97283.66
2018-05-13T06:32:55.323Z,97298.32
2018-05-13T06:35:26.346Z,97300.48
2018-05-13T06:37:56.136Z,97310.44
2018-05-13T06:40:26.775Z,97312.33
2018-05-13T06:42:56.506Z,97312.34
2018-05-13T06:45:27.626Z,97321.19
2018-05-13T06:47:58.591Z,97320.81
2018-05-13T06:50:29.214Z,97326.43
2018-05-13T06:53:00.945Z,97320.91
2018-05-13T06:55:30.870Z,97319.55
2018-05-13T06:58:01.632Z,97329.38
2018-05-13T07:00:32.372Z,97328.70
2018-05-13T07:03:02.612Z,97326.98
2018-05-13T07:05:32.443Z,97327.44
2018-05-13T07:08:02.521Z,97317.14
2018-05-13T07:10:32.388Z,97319.98
2018-05-13T07:13:03.455Z,97318.97
2018-05-13T07:15:33.157Z,97313.73
2018-05-13T07:18:03.399Z,97312.00
2018-05-13T07:20:33.441Z,97305.28
2018-05-13T07:23:03.719Z,97307.30
2018-05-13T07:25:33.344Z,97313.78
2018-05-13T07:28:02.863Z,97309.71
2018-05-13T07:30:33.022Z,97310.67
2018-05-13T07:33:03.718Z,97305.61
2018-05-13T07:35:33.815Z,97302.54
2018-05-13T07:38:05.332Z,97296.66
2018-05-13T07:40:35.553Z,97303.68
2018-05-13T07:43:06.171Z,97289.06
2018-05-13T07:45:37.139Z,97303.86
2018-05-13T07:48:07.381Z,97307.17
2018-05-13T07:50:37.862Z,97300.56
2018-05-13T07:53:07.506Z,97293.40
2018-05-13T07:55:37.907Z,97293.56
2018-05-13T07:58:07.688Z,97294.69
2018-05-13T08:00:37.591Z,97299.33
2018-05-13T08:03:07.325Z,97302.19
2018-05-13T08:05:37.134Z,97305.06
2018-05-13T08:08:06.697Z,97304.05
2018-05-13T08:10:37.174Z,97306.00
2018-05-13T08:13:07.157Z,97305.38
2018-05-13T08:15:36.792Z,97304.34
2018-05-13T08:18:06.557Z,97308.39
2018-05-13T08:20:36.864Z,97305.14
2018-05-13T08:23:06.434Z,97323.81
2018-05-13T08:25:35.918Z,97308.25
2018-05-13T08:28:05.645Z,97308.45
2018-05-13T08:30:35.275Z,97315.23
2018-05-13T08:33:05.156Z,97313.16
2018-05-13T08:35:34.779Z,97308.73
2018-05-13T08:38:04.461Z,97302.88
2018-05-13T08:40:34.935Z,97300.24
2018-05-13T08:43:04.542Z,97298.70
2018-05-13T08:45:34.675Z,97309.41
2018-05-13T08:48:04.303Z,97301.69
2018-05-13T08:50:33.775Z,97301.31
2018-05-13T08:53:03.591Z,97297.41
2018-05-13T08:55:33.238Z,97294.17
2018-05-13T08:58:02.844Z,97297.41
2018-05-13T09:00:32.373Z,97294.17
2018-05-13T09:03:03.743Z,97298.44
2018-05-13T09:05:33.227Z,97291.76
2018-05-13T09:08:03.659Z,97293.13
2018-05-13T09:10:33.416Z,97286.75
2018-05-13T09:13:03.124Z,97279.56
2018-05-13T09:15:32.829Z,97283.22
2018-05-13T09:18:02.566Z,97273.50
2018-05-13T09:20:33.567Z,97281.16
2018-05-13T09:23:04.016Z,97286.89
2018-05-13T09:25:33.640Z,97286.01
2018-05-13T09:28:03.219Z,97279.88
2018-05-13T09:30:32.844Z,97285.67
2018-05-13T09:33:11.800Z,97281.41
2018-05-13T09:35:42.296Z,97287.48
2018-05-13T09:38:11.954Z,97281.00
2018-05-13T09:40:42.248Z,97280.57
2018-05-13T09:43:12.002Z,97277.57
2018-05-13T09:45:42.512Z,97278.74
2018-05-13T09:48:12.383Z,97279.07
2018-05-13T09:50:43.058Z,97272.36
2018-05-13T09:53:12.602Z,97281.27
2018-05-13T09:55:42.202Z,97282.73
2018-05-13T09:58:11.943Z,97282.10
2018-05-13T10:00:42.473Z,97280.20
2018-05-13T10:03:12.085Z,97273.85
2018-05-13T10:05:41.586Z,97284.28
2018-05-13T10:08:11.323Z,97272.52
2018-05-13T10:10:41.015Z,97275.23
2018-05-13T10:13:10.547Z,97268.53
2018-05-13T10:15:41.148Z,97271.42
2018-05-13T10:18:11.668Z,97266.01
2018-05-13T10:20:42.052Z,97261.09
2018-05-13T10:23:12.223Z,97268.11
2018-05-13T10:28:54.965Z,97274.11
2018-05-13T10:31:29.375Z,97269.66
2018-05-13T10:34:00.141Z,97259.22
2018-05-13T10:36:30.661Z,97260.59
2018-05-13T10:39:00.587Z,97256.25
2018-05-13T10:41:43.820Z,97262.00
2018-05-13T10:44:30.840Z,97242.13
2018-05-13T10:47:12.707Z,97244.64
2018-05-13T10:49:45.776Z,97248.67
2018-05-13T10:52:15.506Z,97246.67
2018-05-13T10:54:45.576Z,97245.14
2018-05-13T10:57:16.272Z,97252.55
2018-05-13T10:59:46.650Z,97252.77
2018-05-13T11:02:17.875Z,97238.11
2018-05-13T11:04:48.850Z,97230.45
2018-05-13T11:07:18.540Z,97232.48
2018-05-13T11:09:48.715Z,97222.07
2018-05-13T11:12:19.649Z,97221.44
2018-05-13T11:14:50.421Z,97233.20
2018-05-13T11:17:20.076Z,97227.66
2018-05-13T11:19:50.204Z,97206.98
2018-05-13T11:22:20.203Z,97221.76
2018-05-13T11:24:50.140Z,97222.53
2018-05-13T11:27:20.124Z,97209.82
2018-05-13T11:29:49.870Z,97210.27
2018-05-13T11:32:25.983Z,97213.29
2018-05-13T11:34:55.689Z,97209.51
2018-05-13T11:37:26.130Z,97205.92
2018-05-13T11:39:55.903Z,97209.33
2018-05-13T11:42:25.675Z,97200.18
2018-05-13T11:44:55.161Z,97192.88
2018-05-13T11:47:25.640Z,97190.84
2018-05-13T11:50:10.265Z,97186.96
2018-05-13T11:52:40.747Z,97190.05
2018-05-13T11:55:11.150Z,97188.32
2018-05-13T11:57:44.630Z,97187.33
2018-05-13T12:00:17.744Z,97179.48
2018-05-13T12:02:48.391Z,97172.81
2018-05-13T12:05:20.442Z,97161.45
2018-05-13T12:07:51.194Z,97168.78
2018-05-13T12:10:21.482Z,97167.47
2018-05-13T12:12:51.004Z,97159.81
2018-05-13T12:15:20.938Z,97152.95
2018-05-13T12:18:02.953Z,97147.81
2018-05-13T12:20:32.536Z,97144.73
2018-05-13T12:23:02.136Z,97136.16
2018-05-13T12:25:32.392Z,97124.77
2018-05-13T12:28:02.059Z,97119.80
2018-05-13T12:30:31.780Z,97126.09
2018-05-13T12:33:01.857Z,97117.59
2018-05-13T12:35:32.341Z,97115.61
2018-05-13T12:38:02.246Z,97126.23
2018-05-13T12:40:32.837Z,97121.05
2018-05-13T12:43:02.672Z,97124.77
2018-05-13T12:45:34.840Z,97114.70
2018-05-13T12:48:04.455Z,97110.26
2018-05-13T12:50:34.826Z,97121.32
2018-05-13T12:53:14.025Z,97114.85
2018-05-13T12:55:44.374Z,97110.98
2018-05-13T12:58:13.925Z,97108.80
2018-05-13T13:00:43.681Z,97111.15
2018-05-13T13:03:13.479Z,97112.13
2018-05-13T13:05:43.816Z,97105.72
2018-05-13T13:08:14.025Z,97090.52
2018-05-13T13:10:43.594Z,97096.94
2018-05-13T13:13:13.458Z,97103.91
2018-05-13T13:15:44.431Z,97110.99
2018-05-13T13:18:14.839Z,97097.52
2018-05-13T13:20:44.856Z,97097.61
2018-05-13T13:23:14.649Z,97094.20
2018-05-13T13:25:44.358Z,97090.97
2018-05-13T13:28:15.022Z,97092.98
2018-05-13T13:30:45.083Z,97092.16
2018-05-13T13:33:25.357Z,97077.61
2018-05-13T13:39:04.279Z,97077.41
2018-05-13T13:41:33.845Z,97076.02
2018-05-13T13:44:04.156Z,97077.41
2018-05-13T13:46:34.953Z,97067.27
2018-05-13T13:49:04.584Z,97070.97
2018-05-13T13:51:34.098Z,97068.35
2018-05-13T13:54:03.778Z,97059.95
2018-05-13T13:56:33.422Z,97067.30
2018-05-13T13:59:02.904Z,97053.19
2018-05-13T14:01:32.398Z,97059.41
2018-05-13T14:04:02.024Z,97060.05
2018-05-13T14:06:32.463Z,97070.11
2018-05-13T14:09:01.989Z,97064.39
2018-05-13T14:11:31.978Z,97058.12
2018-05-13T14:14:01.696Z,97054.17
2018-05-13T14:16:31.302Z,97056.09
2018-05-13T14:19:01.017Z,97057.61
2018-05-13T14:21:30.720Z,97043.14
2018-05-13T14:24:00.820Z,97036.99
2018-05-13T14:26:30.560Z,97039.19
2018-05-13T14:29:01.805Z,97041.03
2018-05-13T14:31:31.622Z,97031.92
2018-05-13T14:34:01.128Z,97037.97
2018-05-13T14:36:30.935Z,97026.55
2018-05-13T14:39:06.171Z,97031.55
2018-05-13T14:41:30.552Z,97031.28
2018-05-13T14:44:00.117Z,97030.56
2018-05-13T14:46:30.598Z,97022.42
2018-05-13T14:49:01.613Z,97024.86
2018-05-13T14:51:31.132Z,97029.45
2018-05-13T14:54:00.620Z,97020.83
2018-05-13T14:56:30.365Z,97028.87
2018-05-13T14:59:14.739Z,97026.63
2018-05-13T15:01:44.230Z,97026.05
2018-05-13T15:04:13.718Z,97026.29
2018-05-13T15:06:43.442Z,97028.53
2018-05-13T15:09:13.151Z,97024.08
2018-05-13T15:11:42.720Z,97025.07
2018-05-13T15:14:13.026Z,97024.21
2018-05-13T15:16:43.446Z,97021.94
2018-05-13T15:19:13.093Z,97017.84
2018-05-13T15:21:42.617Z,97027.34
2018-05-13T15:24:12.097Z,97031.47
2018-05-13T15:26:41.741Z,97027.34
2018-05-13T15:29:12.344Z,97017.44
2018-05-13T15:31:42.009Z,97028.97
2018-05-13T15:34:11.797Z,97024.55
2018-05-13T15:36:42.291Z,97019.48
2018-05-13T15:39:11.796Z,97023.83
2018-05-13T15:41:42.051Z,97021.61
2018-05-13T15:44:11.652Z,97019.57
2018-05-13T15:46:54.729Z,97008.25
2018-05-13T15:49:25.253Z,97003.44
2018-05-13T15:51:54.924Z,97019.96
2018-05-13T15:54:24.428Z,97025.28
2018-05-13T15:56:54.139Z,97013.09
2018-05-13T15:59:23.673Z,97022.45
2018-05-13T16:01:54.480Z,97024.14
2018-05-13T16:04:24.957Z,97030.81
2018-05-13T16:06:55.273Z,97033.72
2018-05-13T16:09:24.946Z,97030.58
2018-05-13T16:11:54.632Z,97021.40
2018-05-13T16:14:24.944Z,97020.70
2018-05-13T16:16:55.882Z,97017.45
2018-05-13T16:19:26.372Z,97004.13
2018-05-13T16:22:01.929Z,97011.17
2018-05-13T16:37:28.796Z,97008.31
2018-05-13T16:39:58.601Z,97004.03
2018-05-13T16:42:28.257Z,96996.33
2018-05-13T16:44:57.785Z,96990.86
2018-05-13T16:47:27.290Z,96998.71
2018-05-13T16:49:56.991Z,96987.75
2018-05-13T16:52:28.578Z,96980.38
2018-05-13T16:54:58.350Z,96975.02
2018-05-13T16:57:27.842Z,96973.73
2018-05-13T16:59:57.363Z,96980.17
2018-05-13T17:02:26.912Z,96981.63
2018-05-13T17:04:56.402Z,96982.84
2018-05-13T17:07:26.185Z,96974.78
2018-05-13T17:09:55.664Z,96972.45
2018-05-13T17:12:26.493Z,96977.02
2018-05-13T17:14:59.024Z,96972.84
2018-05-13T17:17:28.616Z,96970.62
2018-05-13T17:19:58.103Z,96958.20
2018-05-13T17:24:49.762Z,96955.64
2018-05-13T17:27:20.285Z,96955.55
2018-05-13T17:29:50.141Z,96952.17
2018-05-13T17:32:19.784Z,96962.80
2018-05-13T17:34:50.840Z,96948.33
2018-05-13T17:40:50.915Z,96967.52
2018-05-13T17:43:23.215Z,96971.38
2018-05-13T17:45:53.130Z,96971.88
2018-05-13T17:48:24.321Z,96977.01
2018-05-13T17:50:53.924Z,96977.27
2018-05-13T17:53:23.388Z,96977.84
2018-05-13T17:55:52.944Z,96975.17
2018-05-13T17:58:22.553Z,96983.16
2018-05-13T18:00:52.593Z,96982.29
2018-05-13T18:03:22.245Z,96971.27
2018-05-13T18:05:52.297Z,96977.88
2018-05-13T18:08:21.777Z,96987.81
2018-05-13T18:10:52.632Z,96980.49
2018-05-13T18:13:22.135Z,96995.08
2018-05-13T18:15:52.887Z,96990.59
2018-05-13T18:18:22.446Z,96994.70
2018-05-13T18:20:52.878Z,96980.02
2018-05-13T18:23:22.678Z,96999.05
2018-05-13T18:25:52.959Z,96987.69
2018-05-13T18:28:23.224Z,96988.77
2018-05-13T18:30:53.900Z,96993.45
2018-05-13T18:33:24.258Z,96993.59
2018-05-13T18:35:53.870Z,96999.34
2018-05-13T18:38:24.487Z,96998.25
2018-05-13T18:40:56.397Z,96994.05
2018-05-13T18:43:26.275Z,97000.16
2018-05-13T18:45:56.127Z,97000.67
2018-05-13T18:48:31.437Z,97007.34
2018-05-13T18:51:01.529Z,97013.48
2018-05-13T18:53:32.080Z,97015.70
2018-05-13T18:56:03.298Z,97008.14
2018-05-13T18:58:36.119Z,97005.61
2018-05-13T19:01:07.042Z,97001.39
2018-05-13T19:03:37.267Z,97003.90
2018-05-13T19:06:07.054Z,96994.12
2018-05-13T19:08:37.123Z,97009.95
2018-05-13T19:11:07.320Z,97016.70
2018-05-13T19:13:37.601Z,97025.98
2018-05-13T19:16:12.138Z,97022.36
2018-05-13T19:18:44.923Z,97031.76
2018-05-13T19:21:14.700Z,97032.20
2018-05-13T19:23:44.667Z,97028.48
2018-05-13T19:26:14.263Z,97023.98
2018-05-13T19:28:44.692Z,97029.99
2018-05-13T19:31:14.855Z,97034.48
2018-05-13T19:33:52.000Z,97033.54
2018-05-13T19:36:22.031Z,97038.94
2018-05-13T19:38:53.630Z,97039.61
2018-05-13T19:41:26.443Z,97044.78
2018-05-13T19:43:59.670Z,97050.27
2018-05-13T19:46:34.601Z,97036.50
2018-05-13T19:49:08.001Z,97036.64
2018-05-13T19:51:43.785Z,97033.54
2018-05-13T19:54:15.418Z,97034.48
2018-05-13T19:56:46.610Z,97033.13
2018-05-13T19:59:17.694Z,97033.06
2018-05-13T20:01:47.578Z,97020.59
2018-05-13T20:04:18.719Z,97021.20
2018-05-13T20:06:49.950Z,97019.59
2018-05-13T20:09:20.506Z,97001.47
2018-05-13T20:11:51.909Z,97010.33
2018-05-13T20:14:23.150Z,96995.75
2018-05-13T20:16:54.186Z,97000.78
2018-05-13T20:19:28.416Z,97008.75
2018-05-13T20:21:59.458Z,97006.22
2018-05-13T20:24:31.996Z,96997.64
2018-05-13T20:27:03.224Z,97002.48
2018-05-13T20:29:33.270Z,97013.19
2018-05-13T20:32:04.935Z,97005.61
2018-05-13T20:34:46.770Z,97003.53
2018-05-13T20:37:18.878Z,96997.11
2018-05-13T20:39:51.309Z,97009.34
2018-05-13T20:42:21.098Z,96988.79
2018-05-13T20:44:51.941Z,96987.27
2018-05-13T20:47:27.648Z,97007.73
2018-05-13T20:49:58.077Z,97011.71
2018-05-13T20:52:27.667Z,97001.14
2018-05-13T20:54:58.018Z,97013.16
2018-05-13T20:57:28.449Z,96996.32
2018-05-13T20:59:58.307Z,97012.39
2018-05-13T21:02:28.262Z,97004.78
2018-05-13T21:04:58.812Z,97000.78
2018-05-13T21:07:28.573Z,97004.61
2018-05-13T21:09:58.148Z,97007.98
2018-05-13T21:12:27.686Z,97002.72
2018-05-13T21:14:57.937Z,96996.47
2018-05-13T21:17:28.382Z,97006.34
2018-05-13T21:19:58.377Z,96991.65
2018-05-13T21:22:29.317Z,97006.64
2018-05-13T21:24:59.872Z,96996.38
2018-05-13T21:27:30.643Z,97001.80
2018-05-13T21:30:01.856Z,96997.31
2018-05-13T21:32:31.778Z,97006.88
2018-05-13T21:35:06.517Z,97001.38
2018-05-13T21:37:40.315Z,97002.73
2018-05-13T21:40:19.542Z,96990.92
2018-05-13T21:42:51.184Z,96995.09
2018-05-13T21:45:32.285Z,96995.23
2018-05-13T21:48:09.331Z,96993.51
2018-05-13T21:50:43.234Z,96998.03
2018-05-13T21:53:14.339Z,96982.50
2018-05-13T21:56:01.588Z,96992.89
2018-05-13T21:58:33.856Z,96994.45
2018-05-13T22:01:05.650Z,96992.45
2018-05-13T22:03:35.429Z,96987.56
2018-05-13T22:06:06.472Z,96986.91
2018-05-13T22:08:36.681Z,96960.50
2018-05-13T22:11:08.291Z,96994.41
2018-05-13T22:13:39.612Z,96990.76
2018-05-13T22:16:11.192Z,96999.42
2018-05-13T22:18:41.014Z,96988.34
2018-05-13T22:21:11.728Z,96998.07
2018-05-13T22:23:41.780Z,96984.93
2018-05-13T22:26:12.085Z,96980.42
2018-05-13T22:28:46.963Z,96978.56
2018-05-13T22:31:18.958Z,96979.22
2018-05-13T22:33:50.229Z,96972.28
2018-05-13T22:36:20.375Z,96985.72
2018-05-13T22:38:50.201Z,96976.77
2018-05-13T22:41:21.268Z,96972.03
2018-05-13T22:43:53.661Z,96968.09
2018-05-13T22:46:24.634Z,96962.92
2018-05-13T22:48:55.563Z,96955.20
2018-05-13T22:51:25.569Z,96967.89
2018-05-13T22:53:56.430Z,96970.35
2018-05-13T22:56:26.146Z,96952.37
2018-05-13T22:58:56.626Z,96961.85
2018-05-13T23:01:29.955Z,96973.42
2018-05-13T23:04:00.100Z,96966.38
2018-05-13T23:06:32.962Z,96954.78
2018-05-13T23:09:04.736Z,96958.99
2018-05-13T23:11:35.169Z,96958.05
2018-05-13T23:14:14.780Z,96947.14
2018-05-13T23:16:44.819Z,96943.91
2018-05-13T23:19:16.045Z,96946.49
2018-05-13T23:21:46.179Z,96948.12
2018-05-13T23:24:16.151Z,96946.23
2018-05-13T23:26:47.761Z,96950.03
2018-05-13T23:29:18.885Z,96934.49
2018-05-13T23:31:48.808Z,96956.38
2018-05-13T23:34:19.325Z,96950.72
2018-05-13T23:36:52.013Z,96951.79
2018-05-13T23:39:23.877Z,96942.73
2018-05-13T23:41:57.510Z,96938.80
2018-05-13T23:44:36.668Z,96934.06
2018-05-13T23:47:07.042Z,96933.66
2018-05-13T23:49:38.783Z,96932.86
2018-05-13T23:52:09.206Z,96935.97
2018-05-13T23:54:39.466Z,96932.59
2018-05-13T23:57:12.094Z,96922.83
2018-05-13T23:59:42.045Z,96927.05
